sensor_id;sensor_type;location;lat;lon;timestamp;pressure;altitude;pressure_sealevel;temperature;humidity
22031;BME280;11179;52.106;21.024;2022-08-06T00:00:42;100199.16;;;21.60;59.24
22031;BME280;11179;52.106;21.024;2022-08-06T00:03:08;100186.19;;;21.56;59.58
22031;BME280;11179;52.106;21.024;2022-08-06T00:05:33;100182.25;;;21.48;59.79
22031;BME280;11179;52.106;21.024;2022-08-06T00:07:58;100174.25;;;21.38;59.83
22031;BME280;11179;52.106;21.024;2022-08-06T00:10:24;100184.28;;;21.39;59.83
22031;BME280;11179;52.106;21.024;2022-08-06T00:12:50;100181.66;;;21.34;60.23
22031;BME280;11179;52.106;21.024;2022-08-06T00:15:16;100183.81;;;21.28;60.19
22031;BME280;11179;52.106;21.024;2022-08-06T00:17:45;100186.47;;;21.25;60.27
22031;BME280;11179;52.106;21.024;2022-08-06T00:20:12;100184.34;;;21.22;60.60
22031;BME280;11179;52.106;21.024;2022-08-06T00:22:38;100189.41;;;21.20;60.66
22031;BME280;11179;52.106;21.024;2022-08-06T00:25:04;100191.72;;;21.18;60.39
22031;BME280;11179;52.106;21.024;2022-08-06T00:27:30;100193.56;;;21.14;60.36
22031;BME280;11179;52.106;21.024;2022-08-06T00:29:55;100189.31;;;21.07;60.63
22031;BME280;11179;52.106;21.024;2022-08-06T00:32:20;100205.44;;;21.02;60.56
22031;BME280;11179;52.106;21.024;2022-08-06T00:34:46;100182.78;;;20.95;60.92
22031;BME280;11179;52.106;21.024;2022-08-06T00:37:11;100184.13;;;20.89;61.26
22031;BME280;11179;52.106;21.024;2022-08-06T00:39:36;100194.28;;;20.85;61.62
22031;BME280;11179;52.106;21.024;2022-08-06T00:42:02;100201.34;;;20.82;61.77
22031;BME280;11179;52.106;21.024;2022-08-06T00:44:27;100198.72;;;20.77;61.62
22031;BME280;11179;52.106;21.024;2022-08-06T00:46:53;100194.28;;;20.67;61.73
22031;BME280;11179;52.106;21.024;2022-08-06T00:49:18;100210.06;;;20.63;61.94
22031;BME280;11179;52.106;21.024;2022-08-06T00:51:44;100221.03;;;20.60;62.08
22031;BME280;11179;52.106;21.024;2022-08-06T00:54:09;100234.66;;;20.61;62.30
22031;BME280;11179;52.106;21.024;2022-08-06T00:56:35;100231.72;;;20.58;62.65
22031;BME280;11179;52.106;21.024;2022-08-06T00:59:01;100220.06;;;20.56;62.48
22031;BME280;11179;52.106;21.024;2022-08-06T01:01:26;100202.81;;;20.54;62.74
22031;BME280;11179;52.106;21.024;2022-08-06T01:03:52;100203.81;;;20.49;62.87
22031;BME280;11179;52.106;21.024;2022-08-06T01:06:17;100235.78;;;20.52;62.79
22031;BME280;11179;52.106;21.024;2022-08-06T01:08:43;100216.63;;;20.50;63.01
22031;BME280;11179;52.106;21.024;2022-08-06T01:11:08;100201.19;;;20.44;63.24
22031;BME280;11179;52.106;21.024;2022-08-06T01:13:33;100219.41;;;20.42;63.24
22031;BME280;11179;52.106;21.024;2022-08-06T01:18:45;100201.19;;;20.35;63.64
22031;BME280;11179;52.106;21.024;2022-08-06T01:23:58;100213.00;;;20.32;63.82
22031;BME280;11179;52.106;21.024;2022-08-06T01:29:33;100209.88;;;20.25;64.07
22031;BME280;11179;52.106;21.024;2022-08-06T01:32:10;100218.41;;;20.20;64.04
22031;BME280;11179;52.106;21.024;2022-08-06T01:34:48;100219.88;;;20.18;64.12
22031;BME280;11179;52.106;21.024;2022-08-06T01:37:38;100216.41;;;20.12;64.09
22031;BME280;11179;52.106;21.024;2022-08-06T01:40:13;100218.22;;;20.08;64.40
22031;BME280;11179;52.106;21.024;2022-08-06T01:42:40;100214.75;;;20.02;64.21
22031;BME280;11179;52.106;21.024;2022-08-06T01:45:09;100209.00;;;19.99;64.24
22031;BME280;11179;52.106;21.024;2022-08-06T01:47:38;100205.03;;;19.91;64.60
22031;BME280;11179;52.106;21.024;2022-08-06T01:50:06;100203.91;;;19.84;64.69
22031;BME280;11179;52.106;21.024;2022-08-06T01:52:36;100219.25;;;19.73;64.93
22031;BME280;11179;52.106;21.024;2022-08-06T01:55:06;100210.88;;;19.73;65.26
22031;BME280;11179;52.106;21.024;2022-08-06T01:57:33;100205.47;;;19.67;65.37
22031;BME280;11179;52.106;21.024;2022-08-06T02:00:00;100214.78;;;19.63;65.35
22031;BME280;11179;52.106;21.024;2022-08-06T02:02:27;100208.91;;;19.64;65.73
22031;BME280;11179;52.106;21.024;2022-08-06T02:04:55;100196.94;;;19.64;65.61
22031;BME280;11179;52.106;21.024;2022-08-06T02:07:25;100204.97;;;19.65;65.93
22031;BME280;11179;52.106;21.024;2022-08-06T02:09:53;100199.41;;;19.65;65.89
22031;BME280;11179;52.106;21.024;2022-08-06T02:12:24;100202.69;;;19.67;65.83
22031;BME280;11179;52.106;21.024;2022-08-06T02:14:58;100199.41;;;19.65;66.00
22031;BME280;11179;52.106;21.024;2022-08-06T02:17:35;100200.72;;;19.68;66.20
22031;BME280;11179;52.106;21.024;2022-08-06T02:20:03;100199.91;;;19.67;65.86
22031;BME280;11179;52.106;21.024;2022-08-06T02:22:33;100194.16;;;19.64;66.02
22031;BME280;11179;52.106;21.024;2022-08-06T02:25:02;100192.84;;;19.61;66.25
22031;BME280;11179;52.106;21.024;2022-08-06T02:27:31;100192.66;;;19.58;66.02
22031;BME280;11179;52.106;21.024;2022-08-06T02:29:59;100194.78;;;19.52;66.52
22031;BME280;11179;52.106;21.024;2022-08-06T02:32:26;100192.13;;;19.47;66.47
22031;BME280;11179;52.106;21.024;2022-08-06T02:34:52;100192.13;;;19.47;66.43
22031;BME280;11179;52.106;21.024;2022-08-06T02:37:31;100190.16;;;19.48;66.61
22031;BME280;11179;52.106;21.024;2022-08-06T02:40:08;100198.00;;;19.46;66.78
22031;BME280;11179;52.106;21.024;2022-08-06T02:42:49;100198.69;;;19.43;66.91
22031;BME280;11179;52.106;21.024;2022-08-06T02:45:25;100202.75;;;19.45;66.78
22031;BME280;11179;52.106;21.024;2022-08-06T02:50:39;100201.13;;;19.44;66.75
22031;BME280;11179;52.106;21.024;2022-08-06T02:53:16;100203.25;;;19.47;66.49
22031;BME280;11179;52.106;21.024;2022-08-06T02:55:45;100202.75;;;19.45;66.74
22031;BME280;11179;52.106;21.024;2022-08-06T02:58:15;100201.13;;;19.44;66.60
22031;BME280;11179;52.106;21.024;2022-08-06T03:00:44;100203.44;;;19.42;66.92
22031;BME280;11179;52.106;21.024;2022-08-06T03:03:12;100203.44;;;19.42;66.71
22031;BME280;11179;52.106;21.024;2022-08-06T03:05:39;100211.28;;;19.40;66.58
22031;BME280;11179;52.106;21.024;2022-08-06T03:08:08;100226.69;;;19.46;66.81
22031;BME280;11179;52.106;21.024;2022-08-06T03:10:34;100221.31;;;19.50;67.04
22031;BME280;11179;52.106;21.024;2022-08-06T03:13:00;100229.00;;;19.53;66.79
22031;BME280;11179;52.106;21.024;2022-08-06T03:15:27;100226.22;;;19.53;66.89
22031;BME280;11179;52.106;21.024;2022-08-06T03:17:55;100218.06;;;19.56;66.78
22031;BME280;11179;52.106;21.024;2022-08-06T03:20:24;100223.63;;;19.56;66.98
22031;BME280;11179;52.106;21.024;2022-08-06T03:25:18;100229.03;;;19.61;66.85
22031;BME280;11179;52.106;21.024;2022-08-06T03:27:44;100240.38;;;19.65;66.60
22031;BME280;11179;52.106;21.024;2022-08-06T03:30:13;100237.25;;;19.66;66.60
22031;BME280;11179;52.106;21.024;2022-08-06T03:32:38;100240.56;;;19.68;66.71
22031;BME280;11179;52.106;21.024;2022-08-06T03:35:05;100237.91;;;19.72;66.77
22031;BME280;11179;52.106;21.024;2022-08-06T03:37:33;100243.34;;;19.77;66.67
22031;BME280;11179;52.106;21.024;2022-08-06T03:39:59;100243.22;;;19.82;66.53
22031;BME280;11179;52.106;21.024;2022-08-06T03:42:25;100251.59;;;19.91;66.50
22031;BME280;11179;52.106;21.024;2022-08-06T03:44:51;100253.28;;;20.00;66.06
22031;BME280;11179;52.106;21.024;2022-08-06T03:47:21;100246.75;;;20.14;66.28
22031;BME280;11179;52.106;21.024;2022-08-06T03:50:02;100244.31;;;20.29;65.90
22031;BME280;11179;52.106;21.024;2022-08-06T03:52:31;100242.06;;;20.49;65.94
22031;BME280;11179;52.106;21.024;2022-08-06T03:55:02;100240.56;;;20.68;65.56
22031;BME280;11179;52.106;21.024;2022-08-06T03:57:33;100243.88;;;20.88;65.13
22031;BME280;11179;52.106;21.024;2022-08-06T04:00:00;100245.97;;;20.99;64.45
22031;BME280;11179;52.106;21.024;2022-08-06T04:02:37;100253.19;;;21.09;63.91
22031;BME280;11179;52.106;21.024;2022-08-06T04:05:05;100256.44;;;21.20;63.41
22031;BME280;11179;52.106;21.024;2022-08-06T04:07:31;100260.88;;;21.29;63.21
22031;BME280;11179;52.106;21.024;2022-08-06T04:09:58;100265.06;;;21.44;62.48
22031;BME280;11179;52.106;21.024;2022-08-06T04:12:24;100270.13;;;21.59;61.93
22031;BME280;11179;52.106;21.024;2022-08-06T04:14:50;100266.50;;;21.67;61.58
22031;BME280;11179;52.106;21.024;2022-08-06T04:17:16;100266.78;;;21.74;61.26
22031;BME280;11179;52.106;21.024;2022-08-06T04:19:42;100266.13;;;21.77;61.05
22031;BME280;11179;52.106;21.024;2022-08-06T04:22:10;100270.03;;;21.85;60.96
22031;BME280;11179;52.106;21.024;2022-08-06T04:24:35;100276.19;;;22.08;60.65
22031;BME280;11179;52.106;21.024;2022-08-06T04:27:04;100290.84;;;22.34;60.41
22031;BME280;11179;52.106;21.024;2022-08-06T04:29:33;100293.16;;;22.53;59.65
22031;BME280;11179;52.106;21.024;2022-08-06T04:31:59;100290.09;;;22.46;59.74
22031;BME280;11179;52.106;21.024;2022-08-06T04:34:26;100287.72;;;22.36;59.81
22031;BME280;11179;52.106;21.024;2022-08-06T04:36:54;100297.31;;;22.26;60.09
22031;BME280;11179;52.106;21.024;2022-08-06T04:39:21;100297.34;;;22.17;59.94
22031;BME280;11179;52.106;21.024;2022-08-06T04:41:47;100306.72;;;22.13;60.21
22031;BME280;11179;52.106;21.024;2022-08-06T04:44:13;100304.06;;;22.16;60.27
22031;BME280;11179;52.106;21.024;2022-08-06T04:46:39;100325.44;;;22.21;60.20
22031;BME280;11179;52.106;21.024;2022-08-06T04:49:04;100331.72;;;22.18;60.24
22031;BME280;11179;52.106;21.024;2022-08-06T04:51:30;100331.41;;;22.11;60.42
22031;BME280;11179;52.106;21.024;2022-08-06T04:53:56;100327.78;;;22.10;60.14
22031;BME280;11179;52.106;21.024;2022-08-06T04:56:21;100324.66;;;22.12;60.42
22031;BME280;11179;52.106;21.024;2022-08-06T04:58:47;100326.78;;;22.15;60.68
22031;BME280;11179;52.106;21.024;2022-08-06T05:01:13;100322.66;;;22.21;60.42
22031;BME280;11179;52.106;21.024;2022-08-06T05:03:38;100331.78;;;22.39;60.61
22031;BME280;11179;52.106;21.024;2022-08-06T05:06:15;100341.59;;;22.74;59.88
22031;BME280;11179;52.106;21.024;2022-08-06T05:08:44;100340.16;;;22.89;59.68
22031;BME280;11179;52.106;21.024;2022-08-06T05:11:19;100340.69;;;22.82;59.90
22031;BME280;11179;52.106;21.024;2022-08-06T05:13:49;100341.38;;;22.79;59.84
22031;BME280;11179;52.106;21.024;2022-08-06T05:16:18;100357.97;;;22.84;60.02
22031;BME280;11179;52.106;21.024;2022-08-06T05:18:49;100351.16;;;22.94;59.75
22031;BME280;11179;52.106;21.024;2022-08-06T05:21:20;100350.16;;;22.99;59.67
22031;BME280;11179;52.106;21.024;2022-08-06T05:23:48;100352.72;;;23.04;59.75
22031;BME280;11179;52.106;21.024;2022-08-06T05:26:14;100361.59;;;23.27;59.49
22031;BME280;11179;52.106;21.024;2022-08-06T05:28:40;100365.03;;;23.44;59.08
22031;BME280;11179;52.106;21.024;2022-08-06T05:31:06;100377.25;;;23.61;58.90
22031;BME280;11179;52.106;21.024;2022-08-06T05:33:37;100383.34;;;23.63;59.12
22031;BME280;11179;52.106;21.024;2022-08-06T05:36:09;100379.75;;;23.41;59.11
22031;BME280;11179;52.106;21.024;2022-08-06T05:38:39;100397.69;;;23.28;59.27
22031;BME280;11179;52.106;21.024;2022-08-06T05:41:09;100419.16;;;23.03;60.07
22031;BME280;11179;52.106;21.024;2022-08-06T05:43:36;100431.78;;;22.80;60.54
22031;BME280;11179;52.106;21.024;2022-08-06T05:46:07;100433.97;;;22.74;60.74
22031;BME280;11179;52.106;21.024;2022-08-06T05:48:41;100460.34;;;22.65;61.42
22031;BME280;11179;52.106;21.024;2022-08-06T05:54:05;100456.72;;;22.35;62.03
22031;BME280;11179;52.106;21.024;2022-08-06T05:56:39;100461.50;;;22.26;62.15
22031;BME280;11179;52.106;21.024;2022-08-06T05:59:10;100460.00;;;22.28;62.56
22031;BME280;11179;52.106;21.024;2022-08-06T06:01:37;100465.28;;;22.21;62.85
22031;BME280;11179;52.106;21.024;2022-08-06T06:04:03;100472.69;;;22.26;62.61
22031;BME280;11179;52.106;21.024;2022-08-06T06:06:28;100478.97;;;22.23;62.77
22031;BME280;11179;52.106;21.024;2022-08-06T06:08:54;100479.28;;;22.21;62.85
22031;BME280;11179;52.106;21.024;2022-08-06T06:11:19;100474.81;;;22.20;62.93
22031;BME280;11179;52.106;21.024;2022-08-06T06:13:45;100477.47;;;22.16;63.17
22031;BME280;11179;52.106;21.024;2022-08-06T06:18:58;100485.69;;;22.13;63.14
22031;BME280;11179;52.106;21.024;2022-08-06T06:24:17;100497.69;;;22.13;63.13
22031;BME280;11179;52.106;21.024;2022-08-06T06:37:46;100522.03;;;22.22;63.77
22031;BME280;11179;52.106;21.024;2022-08-06T06:40:29;100531.59;;;22.21;63.73
22031;BME280;11179;52.106;21.024;2022-08-06T06:43:08;100535.84;;;22.18;63.74
22031;BME280;11179;52.106;21.024;2022-08-06T06:45:39;100535.19;;;22.21;63.68
22031;BME280;11179;52.106;21.024;2022-08-06T06:48:24;100546.56;;;22.25;63.66
22031;BME280;11179;52.106;21.024;2022-08-06T06:50:57;100534.53;;;22.24;63.45
22031;BME280;11179;52.106;21.024;2022-08-06T06:53:26;100539.81;;;22.17;63.52
22031;BME280;11179;52.106;21.024;2022-08-06T06:55:55;100546.06;;;22.31;63.30
22031;BME280;11179;52.106;21.024;2022-08-06T06:58:43;100535.66;;;22.40;63.06
22031;BME280;11179;52.106;21.024;2022-08-06T07:01:11;100540.75;;;22.47;62.88
22031;BME280;11179;52.106;21.024;2022-08-06T07:03:39;100549.47;;;22.45;62.99
22031;BME280;11179;52.106;21.024;2022-08-06T07:06:07;100551.28;;;22.41;63.16
22031;BME280;11179;52.106;21.024;2022-08-06T07:08:37;100557.38;;;22.43;62.68
22031;BME280;11179;52.106;21.024;2022-08-06T07:11:06;100562.16;;;22.43;62.65
22031;BME280;11179;52.106;21.024;2022-08-06T07:13:35;100567.59;;;22.39;62.64
22031;BME280;11179;52.106;21.024;2022-08-06T07:16:02;100566.59;;;22.44;62.83
22031;BME280;11179;52.106;21.024;2022-08-06T07:18:29;100569.84;;;22.55;62.41
22031;BME280;11179;52.106;21.024;2022-08-06T07:20:55;100576.44;;;22.59;62.35
22031;BME280;11179;52.106;21.024;2022-08-06T07:23:21;100581.66;;;22.69;61.91
22031;BME280;11179;52.106;21.024;2022-08-06T07:25:49;100588.25;;;22.73;62.01
22031;BME280;11179;52.106;21.024;2022-08-06T07:28:16;100581.16;;;22.75;61.47
22031;BME280;11179;52.106;21.024;2022-08-06T07:30:42;100594.34;;;22.75;61.26
22031;BME280;11179;52.106;21.024;2022-08-06T07:33:10;100580.84;;;22.68;61.42
22031;BME280;11179;52.106;21.024;2022-08-06T07:35:40;100588.25;;;22.73;61.69
22031;BME280;11179;52.106;21.024;2022-08-06T07:38:08;100583.78;;;22.72;61.31
22031;BME280;11179;52.106;21.024;2022-08-06T07:40:40;100581.81;;;22.72;60.90
22031;BME280;11179;52.106;21.024;2022-08-06T07:43:16;100584.28;;;22.74;61.39
22031;BME280;11179;52.106;21.024;2022-08-06T07:45:43;100589.44;;;22.63;61.51
22031;BME280;11179;52.106;21.024;2022-08-06T07:48:12;100588.94;;;22.61;61.48
22031;BME280;11179;52.106;21.024;2022-08-06T07:50:49;100584.28;;;22.65;61.78
22031;BME280;11179;52.106;21.024;2022-08-06T07:53:15;100600.97;;;22.62;61.86
22031;BME280;11179;52.106;21.024;2022-08-06T07:55:41;100603.63;;;22.49;61.83
22031;BME280;11179;52.106;21.024;2022-08-06T07:58:08;100610.19;;;22.54;61.80
22031;BME280;11179;52.106;21.024;2022-08-06T08:00:35;100615.97;;;22.48;62.11
22031;BME280;11179;52.106;21.024;2022-08-06T08:03:01;100616.97;;;22.44;62.13
22031;BME280;11179;52.106;21.024;2022-08-06T08:05:46;100615.16;;;22.39;62.26
22031;BME280;11179;52.106;21.024;2022-08-06T08:08:30;100622.06;;;22.42;62.52
22031;BME280;11179;52.106;21.024;2022-08-06T08:10:56;100632.25;;;22.38;62.94
22031;BME280;11179;52.106;21.024;2022-08-06T08:13:23;100643.81;;;22.36;62.82
22031;BME280;11179;52.106;21.024;2022-08-06T08:15:50;100646.44;;;22.33;62.76
22031;BME280;11179;52.106;21.024;2022-08-06T08:18:16;100650.03;;;22.25;62.73
22031;BME280;11179;52.106;21.024;2022-08-06T08:20:43;100648.06;;;22.25;62.85
22031;BME280;11179;52.106;21.024;2022-08-06T08:23:11;100657.09;;;22.05;63.47
22031;BME280;11179;52.106;21.024;2022-08-06T08:25:37;100673.38;;;22.03;63.66
22031;BME280;11179;52.106;21.024;2022-08-06T08:28:02;100670.41;;;21.91;64.30
22031;BME280;11179;52.106;21.024;2022-08-06T08:30:28;100691.44;;;21.88;64.34
22031;BME280;11179;52.106;21.024;2022-08-06T08:32:53;100710.69;;;21.90;65.00
22031;BME280;11179;52.106;21.024;2022-08-06T08:35:19;100725.16;;;21.83;65.24
22031;BME280;11179;52.106;21.024;2022-08-06T08:37:44;100741.13;;;21.83;65.16
22031;BME280;11179;52.106;21.024;2022-08-06T08:40:10;100753.59;;;21.76;65.57
22031;BME280;11179;52.106;21.024;2022-08-06T08:42:40;100758.03;;;21.77;65.72
22031;BME280;11179;52.106;21.024;2022-08-06T08:45:08;100778.41;;;21.69;65.94
22031;BME280;11179;52.106;21.024;2022-08-06T08:47:34;100785.56;;;21.62;66.53
22031;BME280;11179;52.106;21.024;2022-08-06T08:50:02;100780.56;;;21.50;66.74
22031;BME280;11179;52.106;21.024;2022-08-06T08:52:32;100777.09;;;21.44;66.82
22031;BME280;11179;52.106;21.024;2022-08-06T08:55:01;100780.03;;;21.39;67.04
22031;BME280;11179;52.106;21.024;2022-08-06T08:57:26;100788.84;;;21.33;67.09
22031;BME280;11179;52.106;21.024;2022-08-06T08:59:54;100796.25;;;21.29;67.38
22031;BME280;11179;52.106;21.024;2022-08-06T09:02:20;100811.47;;;21.23;67.41
22031;BME280;11179;52.106;21.024;2022-08-06T09:04:46;100817.53;;;21.16;67.37
22031;BME280;11179;52.106;21.024;2022-08-06T09:07:11;100813.50;;;21.08;67.46
22031;BME280;11179;52.106;21.024;2022-08-06T09:09:38;100808.56;;;21.05;67.70
22031;BME280;11179;52.106;21.024;2022-08-06T09:12:05;100808.56;;;21.05;68.03
22031;BME280;11179;52.106;21.024;2022-08-06T09:14:30;100798.06;;;21.02;68.15
22031;BME280;11179;52.106;21.024;2022-08-06T09:16:58;100801.47;;;20.99;68.06
22031;BME280;11179;52.106;21.024;2022-08-06T09:19:24;100791.44;;;20.98;68.29
22031;BME280;11179;52.106;21.024;2022-08-06T09:21:51;100799.31;;;20.96;68.39
22031;BME280;11179;52.106;21.024;2022-08-06T09:24:17;100811.34;;;20.83;68.68
22031;BME280;11179;52.106;21.024;2022-08-06T09:27:07;100812.38;;;20.87;69.13
22031;BME280;11179;52.106;21.024;2022-08-06T09:29:34;100823.09;;;20.94;68.98
22031;BME280;11179;52.106;21.024;2022-08-06T09:32:00;100817.19;;;20.95;68.82
22031;BME280;11179;52.106;21.024;2022-08-06T09:34:35;100833.31;;;20.98;69.02
22031;BME280;11179;52.106;21.024;2022-08-06T09:37:01;100830.28;;;20.86;69.19
22031;BME280;11179;52.106;21.024;2022-08-06T09:39:37;100836.16;;;20.85;69.11
22031;BME280;11179;52.106;21.024;2022-08-06T09:42:05;100840.81;;;20.89;69.15
22031;BME280;11179;52.106;21.024;2022-08-06T09:44:31;100841.28;;;20.91;69.13
22031;BME280;11179;52.106;21.024;2022-08-06T09:46:56;100849.41;;;20.79;68.96
22031;BME280;11179;52.106;21.024;2022-08-06T09:49:23;100860.16;;;20.72;68.72
22031;BME280;11179;52.106;21.024;2022-08-06T09:51:48;100858.75;;;20.61;68.51
22031;BME280;11179;52.106;21.024;2022-08-06T09:54:14;100856.06;;;20.56;68.73
22031;BME280;11179;52.106;21.024;2022-08-06T09:56:45;100848.41;;;20.61;68.52
22031;BME280;11179;52.106;21.024;2022-08-06T09:59:11;100849.94;;;20.67;67.77
22031;BME280;11179;52.106;21.024;2022-08-06T10:01:46;100856.03;;;20.69;67.49
22031;BME280;11179;52.106;21.024;2022-08-06T10:04:26;100864.09;;;20.71;66.98
22031;BME280;11179;52.106;21.024;2022-08-06T10:06:52;100861.41;;;20.66;66.87
22031;BME280;11179;52.106;21.024;2022-08-06T10:09:18;100869.38;;;20.59;66.59
22031;BME280;11179;52.106;21.024;2022-08-06T10:11:43;100871.47;;;20.53;66.34
22031;BME280;11179;52.106;21.024;2022-08-06T10:14:27;100879.94;;;20.62;65.92
22031;BME280;11179;52.106;21.024;2022-08-06T10:17:13;100880.63;;;20.67;65.75
22031;BME280;11179;52.106;21.024;2022-08-06T10:19:42;100873.28;;;20.71;65.41
22031;BME280;11179;52.106;21.024;2022-08-06T10:24:36;100875.34;;;20.66;65.07
22031;BME280;11179;52.106;21.024;2022-08-06T10:27:05;100873.84;;;20.60;65.27
22031;BME280;11179;52.106;21.024;2022-08-06T10:29:39;100892.31;;;20.56;65.03
22031;BME280;11179;52.106;21.024;2022-08-06T10:32:05;100906.06;;;20.52;64.79
22031;BME280;11179;52.106;21.024;2022-08-06T10:34:33;100910.72;;;20.43;65.16
22031;BME280;11179;52.106;21.024;2022-08-06T10:37:06;100912.91;;;20.32;65.24
22031;BME280;11179;52.106;21.024;2022-08-06T10:39:36;100919.53;;;20.23;65.17
22031;BME280;11179;52.106;21.024;2022-08-06T10:42:05;100920.97;;;20.20;65.08
22031;BME280;11179;52.106;21.024;2022-08-06T10:44:32;100930.47;;;20.19;65.54
22031;BME280;11179;52.106;21.024;2022-08-06T10:46:58;100931.69;;;20.13;65.36
22031;BME280;11179;52.106;21.024;2022-08-06T10:49:26;100933.97;;;20.11;65.46
22031;BME280;11179;52.106;21.024;2022-08-06T10:51:52;100932.50;;;20.00;65.32
22031;BME280;11179;52.106;21.024;2022-08-06T10:54:18;100940.75;;;19.91;65.79
22031;BME280;11179;52.106;21.024;2022-08-06T10:56:47;100936.00;;;19.92;65.59
22031;BME280;11179;52.106;21.024;2022-08-06T10:59:14;100946.09;;;19.88;65.81
22031;BME280;11179;52.106;21.024;2022-08-06T11:02:08;100942.16;;;19.89;65.87
22031;BME280;11179;52.106;21.024;2022-08-06T11:04:59;100951.13;;;19.86;65.48
22031;BME280;11179;52.106;21.024;2022-08-06T11:10:37;100950.94;;;19.82;65.77
22031;BME280;11179;52.106;21.024;2022-08-06T11:15:41;100950.28;;;19.72;65.60
22031;BME280;11179;52.106;21.024;2022-08-06T11:18:09;100954.59;;;19.64;66.22
22031;BME280;11179;52.106;21.024;2022-08-06T11:20:36;100940.44;;;19.60;66.10
22031;BME280;11179;52.106;21.024;2022-08-06T11:23:21;100942.69;;;19.58;66.41
22031;BME280;11179;52.106;21.024;2022-08-06T11:25:52;100945.53;;;19.72;66.16
22031;BME280;11179;52.106;21.024;2022-08-06T11:30:53;100936.78;;;19.79;66.25
22031;BME280;11179;52.106;21.024;2022-08-06T11:51:40;100948.50;;;19.62;66.25
22031;BME280;11179;52.106;21.024;2022-08-06T11:54:22;100969.44;;;19.59;66.13
22031;BME280;11179;52.106;21.024;2022-08-06T11:59:33;100960.19;;;19.45;66.02
22031;BME280;11179;52.106;21.024;2022-08-06T12:02:02;100948.31;;;19.40;66.21
22031;BME280;11179;52.106;21.024;2022-08-06T12:07:23;100961.97;;;19.22;66.55
22031;BME280;11179;52.106;21.024;2022-08-06T12:18:00;100980.09;;;19.20;66.74
22031;BME280;11179;52.106;21.024;2022-08-06T12:22:54;100981.94;;;19.06;66.47
22031;BME280;11179;52.106;21.024;2022-08-06T12:25:20;101003.69;;;19.04;66.32
22031;BME280;11179;52.106;21.024;2022-08-06T12:27:45;100998.94;;;19.04;66.16
22031;BME280;11179;52.106;21.024;2022-08-06T12:30:11;101001.22;;;19.02;65.80
22031;BME280;11179;52.106;21.024;2022-08-06T12:32:37;100995.66;;;19.02;65.80
22031;BME280;11179;52.106;21.024;2022-08-06T12:35:10;101013.38;;;19.06;65.77
22031;BME280;11179;52.106;21.024;2022-08-06T12:37:40;101005.72;;;18.98;65.48
22031;BME280;11179;52.106;21.024;2022-08-06T12:40:08;101005.56;;;18.89;65.49
22031;BME280;11179;52.106;21.024;2022-08-06T12:45:26;101000.19;;;18.93;65.40
22031;BME280;11179;52.106;21.024;2022-08-06T12:48:04;101006.53;;;18.98;65.81
22031;BME280;11179;52.106;21.024;2022-08-06T12:50:31;101000.59;;;19.05;65.31
22031;BME280;11179;52.106;21.024;2022-08-06T12:53:14;101005.13;;;19.01;65.66
22031;BME280;11179;52.106;21.024;2022-08-06T12:55:53;101021.28;;;19.18;65.74
22031;BME280;11179;52.106;21.024;2022-08-06T12:58:31;101020.56;;;19.31;65.35
22031;BME280;11179;52.106;21.024;2022-08-06T13:00:59;101021.84;;;19.39;65.14
22031;BME280;11179;52.106;21.024;2022-08-06T13:03:26;101002.13;;;19.35;64.89
22031;BME280;11179;52.106;21.024;2022-08-06T13:05:54;101021.22;;;19.60;65.12
22031;BME280;11179;52.106;21.024;2022-08-06T13:08:20;101024.31;;;19.78;64.61
22031;BME280;11179;52.106;21.024;2022-08-06T13:10:51;101017.53;;;19.84;64.70
22031;BME280;11179;52.106;21.024;2022-08-06T13:13:17;101005.75;;;19.87;64.50
22031;BME280;11179;52.106;21.024;2022-08-06T13:15:42;101026.38;;;19.86;64.41
22031;BME280;11179;52.106;21.024;2022-08-06T13:18:15;101029.47;;;19.84;64.49
22031;BME280;11179;52.106;21.024;2022-08-06T13:20:43;101024.13;;;19.88;64.18
22031;BME280;11179;52.106;21.024;2022-08-06T13:23:11;101029.09;;;19.91;64.55
22031;BME280;11179;52.106;21.024;2022-08-06T13:25:44;101014.72;;;20.16;63.88
22031;BME280;11179;52.106;21.024;2022-08-06T13:28:11;101013.63;;;20.45;63.33
22031;BME280;11179;52.106;21.024;2022-08-06T13:30:39;101016.13;;;20.73;62.79
22031;BME280;11179;52.106;21.024;2022-08-06T13:33:21;101021.81;;;20.96;61.76
22031;BME280;11179;52.106;21.024;2022-08-06T13:35:49;101019.81;;;21.10;61.42
22031;BME280;11179;52.106;21.024;2022-08-06T13:38:34;101024.34;;;21.20;60.86
22031;BME280;11179;52.106;21.024;2022-08-06T13:41:01;101014.31;;;21.19;61.00
22031;BME280;11179;52.106;21.024;2022-08-06T13:46:14;101017.38;;;21.31;60.11
22031;BME280;11179;52.106;21.024;2022-08-06T13:51:16;101027.03;;;21.25;59.34
22031;BME280;11179;52.106;21.024;2022-08-06T13:53:42;101037.06;;;21.26;58.68
22031;BME280;11179;52.106;21.024;2022-08-06T13:56:08;101035.75;;;21.09;58.09
22031;BME280;11179;52.106;21.024;2022-08-06T13:58:33;101030.41;;;20.99;58.06
22031;BME280;11179;52.106;21.024;2022-08-06T14:00:59;101043.53;;;20.99;57.79
22031;BME280;11179;52.106;21.024;2022-08-06T14:03:25;101034.22;;;21.03;57.57
22031;BME280;11179;52.106;21.024;2022-08-06T14:05:51;101040.59;;;21.04;57.32
22031;BME280;11179;52.106;21.024;2022-08-06T14:08:17;101028.81;;;21.07;56.96
22031;BME280;11179;52.106;21.024;2022-08-06T14:10:43;101031.75;;;21.02;56.69
22031;BME280;11179;52.106;21.024;2022-08-06T14:13:08;101032.56;;;21.02;56.51
22031;BME280;11179;52.106;21.024;2022-08-06T14:15:52;101030.59;;;21.17;56.44